TimeEDT,TemperatureF,Dew PointF,Humidity,Sea Level PressureIn,VisibilityMPH,Wind Direction,Wind SpeedMPH,Gust SpeedMPH,PrecipitationIn,Events,Conditions,WindDirDegrees,DateUTC
12:51 AM,68.0,64.0,87,30.27,10.0,Calm,Calm,-,N/A,,Scattered Clouds,0,2013-07-14 04:51:00
1:51 AM,69.1,64.9,87,30.26,10.0,Calm,Calm,-,N/A,,Mostly Cloudy,0,2013-07-14 05:51:00
2:51 AM,66.0,63.0,90,30.26,10.0,Calm,Calm,-,N/A,,Clear,0,2013-07-14 06:51:00
3:51 AM,64.9,63.0,93,30.26,10.0,Calm,Calm,-,N/A,,Scattered Clouds,0,2013-07-14 07:51:00
4:51 AM,70.0,61.0,73,30.25,10.0,Variable,4.6,-,N/A,,Scattered Clouds,0,2013-07-14 08:51:00
5:51 AM,68.0,60.1,76,30.27,10.0,Calm,Calm,-,N/A,,Scattered Clouds,0,2013-07-14 09:51:00
6:51 AM,69.1,60.1,73,30.29,10.0,ESE,3.5,-,N/A,,Mostly Cloudy,110,2013-07-14 10:51:00
7:51 AM,73.0,60.1,64,30.31,10.0,SE,5.8,-,N/A,,Scattered Clouds,140,2013-07-14 11:51:00
8:51 AM,75.0,60.1,60,30.33,10.0,SSE,8.1,-,N/A,,Scattered Clouds,160,2013-07-14 12:51:00
9:51 AM,77.0,61.0,58,30.33,10.0,Variable,6.9,-,N/A,,Clear,0,2013-07-14 13:51:00
10:51 AM,79.0,61.0,54,30.34,10.0,South,8.1,-,N/A,,Clear,180,2013-07-14 14:51:00
11:51 AM,82.0,62.1,51,30.34,10.0,South,9.2,-,N/A,,Clear,180,2013-07-14 15:51:00
12:51 PM,82.9,62.1,49,30.33,10.0,South,9.2,-,N/A,,Clear,170,2013-07-14 16:51:00
1:51 PM,84.0,62.1,47,30.32,10.0,SSE,13.8,23.0,N/A,,Clear,150,2013-07-14 17:51:00
2:51 PM,86.0,63.0,46,30.31,10.0,South,9.2,-,N/A,,Clear,190,2013-07-14 18:51:00
3:51 PM,84.9,62.1,46,30.31,10.0,SW,8.1,-,N/A,,Clear,220,2013-07-14 19:51:00
4:51 PM,84.9,63.0,48,30.29,10.0,SSE,6.9,-,N/A,,Clear,160,2013-07-14 20:51:00
5:51 PM,84.9,62.1,46,30.29,10.0,SW,8.1,-,N/A,,Clear,220,2013-07-14 21:51:00
6:51 PM,82.9,62.1,49,30.29,10.0,SSE,5.8,-,N/A,,Clear,160,2013-07-14 22:51:00
7:51 PM,81.0,62.1,52,30.30,10.0,SSE,4.6,-,N/A,,Clear,150,2013-07-14 23:51:00
8:51 PM,73.0,64.0,73,30.32,10.0,Calm,Calm,-,N/A,,Clear,0,2013-07-15 00:51:00
9:51 PM,68.0,63.0,84,30.35,10.0,Calm,Calm,-,N/A,,Clear,0,2013-07-15 01:51:00
10:51 PM,66.0,62.1,87,30.36,10.0,Calm,Calm,-,N/A,,Clear,0,2013-07-15 02:51:00
11:51 PM,64.9,61.0,87,30.35,10.0,Calm,Calm,-,N/A,,Clear,0,2013-07-15 03:51:00